sensor_id;sensor_type;location;lat;lon;timestamp;pressure;altitude;pressure_sealevel;temperature;humidity
52839;BME280;39219;53.678;9.856;2023-04-30T00:01:55;78384.28;;;-147.77;88.25
52839;BME280;39219;53.678;9.856;2023-04-30T00:04:21;78384.28;;;-147.77;88.13
52839;BME280;39219;53.678;9.856;2023-04-30T00:06:48;78386.31;;;-147.77;88.19
52839;BME280;39219;53.678;9.856;2023-04-30T00:09:14;78388.34;;;-147.77;88.44
52839;BME280;39219;53.678;9.856;2023-04-30T00:11:41;78394.41;;;-147.77;88.32
52839;BME280;39219;53.678;9.856;2023-04-30T00:14:08;78402.50;;;-147.77;88.65
52839;BME280;39219;53.678;9.856;2023-04-30T00:16:36;78410.59;;;-147.77;88.62
52839;BME280;39219;53.678;9.856;2023-04-30T00:19:03;78408.56;;;-147.77;89.02
52839;BME280;39219;53.678;9.856;2023-04-30T00:21:29;78394.41;;;-147.77;88.70
52839;BME280;39219;53.678;9.856;2023-04-30T00:23:56;78398.47;;;-147.77;88.34
52839;BME280;39219;53.678;9.856;2023-04-30T00:26:24;78390.38;;;-147.77;88.43
52839;BME280;39219;53.678;9.856;2023-04-30T00:28:51;78394.41;;;-147.77;88.54
52839;BME280;39219;53.678;9.856;2023-04-30T00:31:17;78406.56;;;-147.77;88.20
52839;BME280;39219;53.678;9.856;2023-04-30T00:33:45;78408.56;;;-147.77;88.49
52839;BME280;39219;53.678;9.856;2023-04-30T00:36:11;78412.63;;;-147.77;88.61
52839;BME280;39219;53.678;9.856;2023-04-30T00:38:38;78424.78;;;-147.77;88.76
52839;BME280;39219;53.678;9.856;2023-04-30T00:41:05;78426.78;;;-147.77;88.37
52839;BME280;39219;53.678;9.856;2023-04-30T00:43:31;78430.84;;;-147.77;88.48
52839;BME280;39219;53.678;9.856;2023-04-30T00:45:58;78445.00;;;-147.77;88.86
52839;BME280;39219;53.678;9.856;2023-04-30T00:48:25;78445.00;;;-147.77;88.90
52839;BME280;39219;53.678;9.856;2023-04-30T00:50:53;78449.06;;;-147.77;89.30
52839;BME280;39219;53.678;9.856;2023-04-30T00:53:20;78447.03;;;-147.77;89.19
52839;BME280;39219;53.678;9.856;2023-04-30T00:55:47;78457.16;;;-147.77;88.66
52839;BME280;39219;53.678;9.856;2023-04-30T00:58:14;78447.03;;;-147.77;89.18
52839;BME280;39219;53.678;9.856;2023-04-30T01:00:41;78442.97;;;-147.77;89.09
52839;BME280;39219;53.678;9.856;2023-04-30T01:03:11;78453.09;;;-147.77;89.10
52839;BME280;39219;53.678;9.856;2023-04-30T01:05:38;78463.22;;;-147.77;89.25
52839;BME280;39219;53.678;9.856;2023-04-30T01:08:07;78467.28;;;-147.77;89.15
52839;BME280;39219;53.678;9.856;2023-04-30T01:10:40;78471.31;;;-147.77;89.28
52839;BME280;39219;53.678;9.856;2023-04-30T01:13:16;78465.25;;;-147.77;89.37
52839;BME280;39219;53.678;9.856;2023-04-30T01:15:48;78477.38;;;-147.77;89.03
52839;BME280;39219;53.678;9.856;2023-04-30T01:18:24;78497.63;;;-147.77;89.30
52839;BME280;39219;53.678;9.856;2023-04-30T01:20:57;78479.41;;;-147.77;89.55
52839;BME280;39219;53.678;9.856;2023-04-30T01:23:41;78477.38;;;-147.77;89.09
52839;BME280;39219;53.678;9.856;2023-04-30T01:26:14;78499.66;;;-147.77;88.82
52839;BME280;39219;53.678;9.856;2023-04-30T01:28:49;78501.69;;;-147.77;89.41
52839;BME280;39219;53.678;9.856;2023-04-30T01:31:18;78503.69;;;-147.77;89.46
52839;BME280;39219;53.678;9.856;2023-04-30T01:33:45;78519.88;;;-147.77;89.23
52839;BME280;39219;53.678;9.856;2023-04-30T01:36:28;78544.19;;;-147.77;89.76
52839;BME280;39219;53.678;9.856;2023-04-30T01:39:07;78546.19;;;-147.77;90.18
52839;BME280;39219;53.678;9.856;2023-04-30T01:41:43;78536.09;;;-147.77;90.44
52839;BME280;39219;53.678;9.856;2023-04-30T01:44:28;78556.31;;;-147.77;90.33
52839;BME280;39219;53.678;9.856;2023-04-30T01:47:03;78578.59;;;-147.77;90.07
52839;BME280;39219;53.678;9.856;2023-04-30T01:49:40;78596.81;;;-147.77;90.63
52839;BME280;39219;53.678;9.856;2023-04-30T01:52:17;78604.91;;;-147.77;91.29
52839;BME280;39219;53.678;9.856;2023-04-30T01:54:48;78608.94;;;-147.77;91.27
52839;BME280;39219;53.678;9.856;2023-04-30T01:57:28;78574.53;;;-147.77;90.55
52839;BME280;39219;53.678;9.856;2023-04-30T01:59:59;78594.78;;;-147.77;89.36
52839;BME280;39219;53.678;9.856;2023-04-30T02:02:25;78627.16;;;-147.77;88.82
52839;BME280;39219;53.678;9.856;2023-04-30T02:04:52;78625.13;;;-147.77;90.39
52839;BME280;39219;53.678;9.856;2023-04-30T02:07:27;78615.00;;;-147.77;91.09
52839;BME280;39219;53.678;9.856;2023-04-30T02:09:57;78633.22;;;-147.77;90.78
52839;BME280;39219;53.678;9.856;2023-04-30T02:12:23;78659.53;;;-147.77;91.09
52839;BME280;39219;53.678;9.856;2023-04-30T02:14:50;78645.38;;;-147.77;91.64
52839;BME280;39219;53.678;9.856;2023-04-30T02:17:18;78671.69;;;-147.77;91.58
52839;BME280;39219;53.678;9.856;2023-04-30T02:19:44;78689.91;;;-147.77;92.07
52839;BME280;39219;53.678;9.856;2023-04-30T02:22:11;78653.47;;;-147.77;92.73
52839;BME280;39219;53.678;9.856;2023-04-30T02:24:37;78635.25;;;-147.77;93.22
52839;BME280;39219;53.678;9.856;2023-04-30T02:27:03;78613.00;;;-147.77;92.98
52839;BME280;39219;53.678;9.856;2023-04-30T02:29:30;78608.94;;;-147.77;91.96
52839;BME280;39219;53.678;9.856;2023-04-30T02:31:57;78602.88;;;-147.77;91.89
52839;BME280;39219;53.678;9.856;2023-04-30T02:34:25;78625.13;;;-147.77;91.27
52839;BME280;39219;53.678;9.856;2023-04-30T02:36:52;78655.50;;;-147.77;90.52
52839;BME280;39219;53.678;9.856;2023-04-30T02:39:18;78641.31;;;-147.77;92.03
52839;BME280;39219;53.678;9.856;2023-04-30T02:41:45;78637.28;;;-147.77;91.60
52839;BME280;39219;53.678;9.856;2023-04-30T02:44:11;78631.22;;;-147.77;91.71
52839;BME280;39219;53.678;9.856;2023-04-30T02:46:37;78633.22;;;-147.77;92.16
52839;BME280;39219;53.678;9.856;2023-04-30T02:49:04;78633.22;;;-147.77;91.78
52839;BME280;39219;53.678;9.856;2023-04-30T02:51:32;78643.34;;;-147.77;91.51
52839;BME280;39219;53.678;9.856;2023-04-30T02:53:58;78631.22;;;-147.77;91.91
52839;BME280;39219;53.678;9.856;2023-04-30T02:56:25;78649.41;;;-147.77;91.89
52839;BME280;39219;53.678;9.856;2023-04-30T02:58:51;78657.50;;;-147.77;92.15
52839;BME280;39219;53.678;9.856;2023-04-30T03:01:18;78671.69;;;-147.77;91.99
52839;BME280;39219;53.678;9.856;2023-04-30T03:03:44;78677.75;;;-147.77;92.88
52839;BME280;39219;53.678;9.856;2023-04-30T03:06:11;78693.94;;;-147.77;92.60
52839;BME280;39219;53.678;9.856;2023-04-30T03:08:38;78718.25;;;-147.77;91.98
52839;BME280;39219;53.678;9.856;2023-04-30T03:11:05;78695.97;;;-147.77;93.19
52839;BME280;39219;53.678;9.856;2023-04-30T03:13:31;78700.03;;;-147.77;93.12
52839;BME280;39219;53.678;9.856;2023-04-30T03:15:58;78712.16;;;-147.77;93.01
52839;BME280;39219;53.678;9.856;2023-04-30T03:18:25;78702.03;;;-147.77;93.62
52839;BME280;39219;53.678;9.856;2023-04-30T03:20:52;78691.94;;;-147.77;94.24
52839;BME280;39219;53.678;9.856;2023-04-30T03:23:18;78691.94;;;-147.77;94.37
52839;BME280;39219;53.678;9.856;2023-04-30T03:25:47;78689.91;;;-147.77;94.22
52839;BME280;39219;53.678;9.856;2023-04-30T03:28:14;78704.06;;;-147.77;93.86
52839;BME280;39219;53.678;9.856;2023-04-30T03:30:40;78685.84;;;-147.77;94.72
52839;BME280;39219;53.678;9.856;2023-04-30T03:33:07;78712.16;;;-147.77;93.85
52839;BME280;39219;53.678;9.856;2023-04-30T03:35:33;78698.00;;;-147.77;94.87
52839;BME280;39219;53.678;9.856;2023-04-30T03:38:00;78716.22;;;-147.77;93.15
52839;BME280;39219;53.678;9.856;2023-04-30T03:40:27;78734.44;;;-147.77;93.66
52839;BME280;39219;53.678;9.856;2023-04-30T03:42:55;78734.44;;;-147.77;93.58
52839;BME280;39219;53.678;9.856;2023-04-30T03:45:21;78746.56;;;-147.77;93.55
52839;BME280;39219;53.678;9.856;2023-04-30T03:47:49;78762.75;;;-147.77;94.08
52839;BME280;39219;53.678;9.856;2023-04-30T03:50:17;78774.91;;;-147.77;94.19
52839;BME280;39219;53.678;9.856;2023-04-30T03:52:44;78762.75;;;-147.77;94.26
52839;BME280;39219;53.678;9.856;2023-04-30T03:55:11;78750.63;;;-147.77;94.59
52839;BME280;39219;53.678;9.856;2023-04-30T03:57:38;78746.56;;;-147.77;94.91
52839;BME280;39219;53.678;9.856;2023-04-30T04:00:08;78730.38;;;-147.77;95.16
52839;BME280;39219;53.678;9.856;2023-04-30T04:02:34;78718.25;;;-147.77;95.48
52839;BME280;39219;53.678;9.856;2023-04-30T04:05:01;78708.13;;;-147.77;95.68
52839;BME280;39219;53.678;9.856;2023-04-30T04:07:28;78718.25;;;-147.77;95.42
52839;BME280;39219;53.678;9.856;2023-04-30T04:09:54;78714.19;;;-147.77;96.19
52839;BME280;39219;53.678;9.856;2023-04-30T04:12:21;78695.97;;;-147.77;96.72
52839;BME280;39219;53.678;9.856;2023-04-30T04:14:47;78661.56;;;-147.77;96.14
52839;BME280;39219;53.678;9.856;2023-04-30T04:17:15;78657.50;;;-147.77;95.39
52839;BME280;39219;53.678;9.856;2023-04-30T04:19:42;78635.25;;;-147.77;94.71
52839;BME280;39219;53.678;9.856;2023-04-30T04:22:08;78631.22;;;-147.77;93.73
52839;BME280;39219;53.678;9.856;2023-04-30T04:24:35;78631.22;;;-147.77;93.45
52839;BME280;39219;53.678;9.856;2023-04-30T04:27:02;78629.19;;;-147.77;92.94
52839;BME280;39219;53.678;9.856;2023-04-30T04:29:29;78649.41;;;-147.77;91.99
52839;BME280;39219;53.678;9.856;2023-04-30T04:31:56;78653.47;;;-147.77;93.31
52839;BME280;39219;53.678;9.856;2023-04-30T04:34:25;78651.44;;;-147.77;93.70
52839;BME280;39219;53.678;9.856;2023-04-30T04:36:52;78657.50;;;-147.77;93.37
52839;BME280;39219;53.678;9.856;2023-04-30T04:39:18;78641.31;;;-147.77;93.54
52839;BME280;39219;53.678;9.856;2023-04-30T04:41:45;78623.09;;;-147.77;93.36
52839;BME280;39219;53.678;9.856;2023-04-30T04:44:11;78608.94;;;-147.77;93.38
52839;BME280;39219;53.678;9.856;2023-04-30T04:46:38;78606.91;;;-147.77;93.34
52839;BME280;39219;53.678;9.856;2023-04-30T04:49:06;78582.63;;;-147.77;93.53
52839;BME280;39219;53.678;9.856;2023-04-30T04:51:34;78574.53;;;-147.77;93.57
52839;BME280;39219;53.678;9.856;2023-04-30T04:54:01;78562.38;;;-147.77;92.88
52839;BME280;39219;53.678;9.856;2023-04-30T04:56:27;78544.19;;;-147.77;91.90
52839;BME280;39219;53.678;9.856;2023-04-30T04:58:54;78532.03;;;-147.77;91.58
52839;BME280;39219;53.678;9.856;2023-04-30T05:01:21;78519.88;;;-147.77;91.25
52839;BME280;39219;53.678;9.856;2023-04-30T05:03:47;78511.78;;;-147.77;92.15
52839;BME280;39219;53.678;9.856;2023-04-30T05:06:13;78493.59;;;-147.77;92.01
52839;BME280;39219;53.678;9.856;2023-04-30T05:08:41;78465.25;;;-147.77;92.32
52839;BME280;39219;53.678;9.856;2023-04-30T05:11:08;78445.00;;;-147.77;91.40
52839;BME280;39219;53.678;9.856;2023-04-30T05:13:34;78424.78;;;-147.77;90.28
52839;BME280;39219;53.678;9.856;2023-04-30T05:16:01;78402.50;;;-147.77;88.41
52839;BME280;39219;53.678;9.856;2023-04-30T05:18:27;78386.31;;;-147.77;88.27
52839;BME280;39219;53.678;9.856;2023-04-30T05:20:54;78370.13;;;-147.77;88.25
52839;BME280;39219;53.678;9.856;2023-04-30T05:23:20;78343.81;;;-147.77;86.38
52839;BME280;39219;53.678;9.856;2023-04-30T05:25:51;78323.56;;;-147.77;87.45
52839;BME280;39219;53.678;9.856;2023-04-30T05:28:19;78260.84;;;-147.77;87.13
52839;BME280;39219;53.678;9.856;2023-04-30T05:30:45;78056.44;;;-147.77;86.75
52839;BME280;39219;53.678;9.856;2023-04-30T05:33:12;77718.50;;;-147.77;80.26
52839;BME280;39219;53.678;9.856;2023-04-30T05:35:38;77398.81;;;-147.77;72.81
52839;BME280;39219;53.678;9.856;2023-04-30T05:38:04;77198.50;;;-147.77;63.48
52839;BME280;39219;53.678;9.856;2023-04-30T05:40:31;77020.47;;;-147.77;49.65
52839;BME280;39219;53.678;9.856;2023-04-30T05:42:59;76844.44;;;-147.77;52.47
52839;BME280;39219;53.678;9.856;2023-04-30T05:45:25;76672.50;;;-147.77;45.26
52839;BME280;39219;53.678;9.856;2023-04-30T05:47:52;76516.72;;;-147.77;37.93
52839;BME280;39219;53.678;9.856;2023-04-30T05:50:19;76472.22;;;-147.77;33.55
52839;BME280;39219;53.678;9.856;2023-04-30T05:52:45;76332.66;;;-147.77;37.61
52839;BME280;39219;53.678;9.856;2023-04-30T05:55:11;76150.59;;;-147.77;33.83
52839;BME280;39219;53.678;9.856;2023-04-30T05:57:38;76089.94;;;-147.77;33.27
52839;BME280;39219;53.678;9.856;2023-04-30T06:00:07;75944.31;;;-147.77;33.76
52839;BME280;39219;53.678;9.856;2023-04-30T06:02:34;75837.09;;;-147.77;31.85
52839;BME280;39219;53.678;9.856;2023-04-30T06:05:00;75778.44;;;-147.77;30.08
52839;BME280;39219;53.678;9.856;2023-04-30T06:07:27;75768.34;;;-147.77;29.36
52839;BME280;39219;53.678;9.856;2023-04-30T06:09:54;75740.03;;;-147.77;27.68
52839;BME280;39219;53.678;9.856;2023-04-30T06:12:21;75671.25;;;-147.77;28.10
52839;BME280;39219;53.678;9.856;2023-04-30T06:14:47;75578.22;;;-147.77;26.93
52839;BME280;39219;53.678;9.856;2023-04-30T06:17:15;75624.75;;;-147.77;25.63
52839;BME280;39219;53.678;9.856;2023-04-30T06:19:42;75768.34;;;-147.77;26.87
52839;BME280;39219;53.678;9.856;2023-04-30T06:22:08;75788.56;;;-147.77;26.28
52839;BME280;39219;53.678;9.856;2023-04-30T06:24:34;75808.78;;;-147.77;27.07
52839;BME280;39219;53.678;9.856;2023-04-30T06:27:01;75685.41;;;-147.77;24.75
52839;BME280;39219;53.678;9.856;2023-04-30T06:29:28;75802.72;;;-147.77;26.25
52839;BME280;39219;53.678;9.856;2023-04-30T06:31:54;75879.56;;;-147.77;25.50
52839;BME280;39219;53.678;9.856;2023-04-30T06:34:22;75861.38;;;-147.77;26.52
52839;BME280;39219;53.678;9.856;2023-04-30T06:36:49;75800.69;;;-147.77;25.86
52839;BME280;39219;53.678;9.856;2023-04-30T06:39:15;76051.50;;;-147.77;26.23
52839;BME280;39219;53.678;9.856;2023-04-30T06:41:42;75974.63;;;-147.77;25.90
52839;BME280;39219;53.678;9.856;2023-04-30T06:44:09;75883.63;;;-147.77;25.62
52839;BME280;39219;53.678;9.856;2023-04-30T06:46:35;75986.78;;;-147.77;26.39
52839;BME280;39219;53.678;9.856;2023-04-30T06:49:02;75895.75;;;-147.77;26.08
52839;BME280;39219;53.678;9.856;2023-04-30T06:51:29;75887.66;;;-147.77;25.05
52839;BME280;39219;53.678;9.856;2023-04-30T06:53:56;75851.25;;;-147.77;25.33
52839;BME280;39219;53.678;9.856;2023-04-30T06:56:22;75950.38;;;-147.77;25.38
52839;BME280;39219;53.678;9.856;2023-04-30T06:58:49;76051.50;;;-147.77;26.51
52839;BME280;39219;53.678;9.856;2023-04-30T07:01:16;76079.81;;;-147.77;26.43
52839;BME280;39219;53.678;9.856;2023-04-30T07:03:42;76314.44;;;-147.77;26.82
52839;BME280;39219;53.678;9.856;2023-04-30T07:06:09;76245.69;;;-147.77;27.57
52839;BME280;39219;53.678;9.856;2023-04-30T07:08:37;76158.69;;;-147.77;25.82
52839;BME280;39219;53.678;9.856;2023-04-30T07:11:05;76148.59;;;-147.77;25.56
52839;BME280;39219;53.678;9.856;2023-04-30T07:13:32;76189.03;;;-147.77;25.98
52839;BME280;39219;53.678;9.856;2023-04-30T07:15:58;76201.19;;;-147.77;25.89
52839;BME280;39219;53.678;9.856;2023-04-30T07:18:25;76118.25;;;-147.77;25.77
52839;BME280;39219;53.678;9.856;2023-04-30T07:20:51;76241.63;;;-147.77;25.97
52839;BME280;39219;53.678;9.856;2023-04-30T07:23:18;76371.09;;;-147.77;26.42
52839;BME280;39219;53.678;9.856;2023-04-30T07:25:46;76330.63;;;-147.77;26.84
52839;BME280;39219;53.678;9.856;2023-04-30T07:28:12;76316.47;;;-147.77;26.82
52839;BME280;39219;53.678;9.856;2023-04-30T07:30:39;76237.59;;;-147.77;26.96
52839;BME280;39219;53.678;9.856;2023-04-30T07:33:05;76162.75;;;-147.77;25.87
52839;BME280;39219;53.678;9.856;2023-04-30T07:35:33;76100.03;;;-147.77;25.13
52839;BME280;39219;53.678;9.856;2023-04-30T07:38:00;76413.56;;;-147.77;26.73
52839;BME280;39219;53.678;9.856;2023-04-30T07:40:27;76601.69;;;-147.77;27.76
52839;BME280;39219;53.678;9.856;2023-04-30T07:42:55;76561.25;;;-147.77;27.86
52839;BME280;39219;53.678;9.856;2023-04-30T07:45:22;76617.88;;;-147.77;27.85
52839;BME280;39219;53.678;9.856;2023-04-30T07:47:48;76443.91;;;-147.77;27.04
52839;BME280;39219;53.678;9.856;2023-04-30T07:50:15;76494.47;;;-147.77;27.24
52839;BME280;39219;53.678;9.856;2023-04-30T07:52:41;76532.91;;;-147.77;27.33
52839;BME280;39219;53.678;9.856;2023-04-30T07:55:08;76611.81;;;-147.77;28.54
52839;BME280;39219;53.678;9.856;2023-04-30T07:57:35;76638.09;;;-147.77;28.48
52839;BME280;39219;53.678;9.856;2023-04-30T08:00:03;76456.06;;;-147.77;28.20
52839;BME280;39219;53.678;9.856;2023-04-30T08:02:30;76310.41;;;-147.77;25.98
52839;BME280;39219;53.678;9.856;2023-04-30T08:04:57;76255.78;;;-147.77;25.64
52839;BME280;39219;53.678;9.856;2023-04-30T08:07:23;76403.44;;;-147.77;25.94
52839;BME280;39219;53.678;9.856;2023-04-30T08:09:50;76324.56;;;-147.77;25.94
52839;BME280;39219;53.678;9.856;2023-04-30T08:12:16;76346.81;;;-147.77;26.54
52839;BME280;39219;53.678;9.856;2023-04-30T08:14:43;76342.78;;;-147.77;26.07
52839;BME280;39219;53.678;9.856;2023-04-30T08:17:11;76445.94;;;-147.77;27.00
52839;BME280;39219;53.678;9.856;2023-04-30T08:19:37;76445.94;;;-147.77;27.68
52839;BME280;39219;53.678;9.856;2023-04-30T08:22:03;76445.94;;;-147.77;26.86
52839;BME280;39219;53.678;9.856;2023-04-30T08:24:30;76630.00;;;-147.77;28.47
52839;BME280;39219;53.678;9.856;2023-04-30T08:26:56;76581.47;;;-147.77;28.29
52839;BME280;39219;53.678;9.856;2023-04-30T08:29:25;76530.91;;;-147.77;28.83
52839;BME280;39219;53.678;9.856;2023-04-30T08:31:51;76441.88;;;-147.77;27.81
52839;BME280;39219;53.678;9.856;2023-04-30T08:34:19;76310.41;;;-147.77;27.26
52839;BME280;39219;53.678;9.856;2023-04-30T08:36:46;76401.44;;;-147.77;28.13
52839;BME280;39219;53.678;9.856;2023-04-30T08:39:12;76397.38;;;-147.77;27.92
52839;BME280;39219;53.678;9.856;2023-04-30T08:41:40;76565.28;;;-147.77;28.53
52839;BME280;39219;53.678;9.856;2023-04-30T08:44:09;76897.06;;;-147.77;32.07
52839;BME280;39219;53.678;9.856;2023-04-30T08:46:37;77160.06;;;-147.77;33.84
52839;BME280;39219;53.678;9.856;2023-04-30T08:49:04;77176.25;;;-147.77;34.13
52839;BME280;39219;53.678;9.856;2023-04-30T08:51:33;77060.94;;;-147.77;32.84
52839;BME280;39219;53.678;9.856;2023-04-30T08:54:00;76941.56;;;-147.77;30.57
52839;BME280;39219;53.678;9.856;2023-04-30T08:56:26;76899.06;;;-147.77;30.64
52839;BME280;39219;53.678;9.856;2023-04-30T08:58:55;76882.91;;;-147.77;30.57
52839;BME280;39219;53.678;9.856;2023-04-30T09:01:22;76751.41;;;-147.77;30.60
52839;BME280;39219;53.678;9.856;2023-04-30T09:03:49;76690.72;;;-147.77;30.53
52839;BME280;39219;53.678;9.856;2023-04-30T09:06:16;76664.41;;;-147.77;28.97
52839;BME280;39219;53.678;9.856;2023-04-30T09:08:44;76755.44;;;-147.77;29.64
52839;BME280;39219;53.678;9.856;2023-04-30T09:11:22;76727.13;;;-147.77;29.71
52839;BME280;39219;53.678;9.856;2023-04-30T09:13:51;76785.78;;;-147.77;29.28
52839;BME280;39219;53.678;9.856;2023-04-30T09:16:18;76858.63;;;-147.77;30.46
52839;BME280;39219;53.678;9.856;2023-04-30T09:18:45;76848.50;;;-147.77;31.64
52839;BME280;39219;53.678;9.856;2023-04-30T09:21:12;76799.94;;;-147.77;30.87
52839;BME280;39219;53.678;9.856;2023-04-30T09:23:53;76686.66;;;-147.77;31.12
52839;BME280;39219;53.678;9.856;2023-04-30T09:26:25;76640.13;;;-147.77;31.26
52839;BME280;39219;53.678;9.856;2023-04-30T09:28:56;76630.00;;;-147.77;31.19
52839;BME280;39219;53.678;9.856;2023-04-30T09:31:24;76700.81;;;-147.77;31.82
52839;BME280;39219;53.678;9.856;2023-04-30T09:33:51;76743.31;;;-147.77;33.09
52839;BME280;39219;53.678;9.856;2023-04-30T09:36:18;76666.44;;;-147.77;31.59
52839;BME280;39219;53.678;9.856;2023-04-30T09:38:45;76700.81;;;-147.77;31.12
52839;BME280;39219;53.678;9.856;2023-04-30T09:41:22;76751.41;;;-147.77;29.40
52839;BME280;39219;53.678;9.856;2023-04-30T09:43:49;76763.53;;;-147.77;30.70
52839;BME280;39219;53.678;9.856;2023-04-30T09:46:18;76749.38;;;-147.77;31.62
52839;BME280;39219;53.678;9.856;2023-04-30T09:48:44;76771.63;;;-147.77;31.46
52839;BME280;39219;53.678;9.856;2023-04-30T09:51:11;76799.94;;;-147.77;30.28
52839;BME280;39219;53.678;9.856;2023-04-30T09:53:39;76818.16;;;-147.77;33.14
52839;BME280;39219;53.678;9.856;2023-04-30T09:56:07;76884.91;;;-147.77;32.60
52839;BME280;39219;53.678;9.856;2023-04-30T09:58:39;76888.97;;;-147.77;33.83
52839;BME280;39219;53.678;9.856;2023-04-30T10:01:09;76901.09;;;-147.77;31.61
52839;BME280;39219;53.678;9.856;2023-04-30T10:03:38;76913.25;;;-147.77;31.89
52839;BME280;39219;53.678;9.856;2023-04-30T10:06:05;76880.88;;;-147.77;32.24
52839;BME280;39219;53.678;9.856;2023-04-30T10:08:39;76895.03;;;-147.77;30.79
52839;BME280;39219;53.678;9.856;2023-04-30T10:11:07;76903.13;;;-147.77;34.09
52839;BME280;39219;53.678;9.856;2023-04-30T10:13:39;76816.13;;;-147.77;35.23
52839;BME280;39219;53.678;9.856;2023-04-30T10:16:13;76791.84;;;-147.77;33.95
52839;BME280;39219;53.678;9.856;2023-04-30T10:18:45;76783.75;;;-147.77;32.84
52839;BME280;39219;53.678;9.856;2023-04-30T10:21:14;76769.59;;;-147.77;32.75
52839;BME280;39219;53.678;9.856;2023-04-30T10:23:43;76804.00;;;-147.77;31.28
52839;BME280;39219;53.678;9.856;2023-04-30T10:26:10;76844.44;;;-147.77;32.65
52839;BME280;39219;53.678;9.856;2023-04-30T10:28:40;76816.13;;;-147.77;33.39
52839;BME280;39219;53.678;9.856;2023-04-30T10:31:08;76773.66;;;-147.77;32.08
52839;BME280;39219;53.678;9.856;2023-04-30T10:33:41;76822.19;;;-147.77;30.31
52839;BME280;39219;53.678;9.856;2023-04-30T10:36:21;76862.66;;;-147.77;31.91
52839;BME280;39219;53.678;9.856;2023-04-30T10:38:50;76893.00;;;-147.77;33.51
52839;BME280;39219;53.678;9.856;2023-04-30T10:41:19;76953.69;;;-147.77;33.09
52839;BME280;39219;53.678;9.856;2023-04-30T10:43:47;76886.94;;;-147.77;33.76
52839;BME280;39219;53.678;9.856;2023-04-30T10:46:21;76822.19;;;-147.77;32.45
52839;BME280;39219;53.678;9.856;2023-04-30T10:48:48;76820.19;;;-147.77;34.28
52839;BME280;39219;53.678;9.856;2023-04-30T10:51:14;76775.66;;;-147.77;34.05
52839;BME280;39219;53.678;9.856;2023-04-30T10:53:42;76702.84;;;-147.77;34.47
52839;BME280;39219;53.678;9.856;2023-04-30T10:56:09;76749.38;;;-147.77;33.31
52839;BME280;39219;53.678;9.856;2023-04-30T10:58:38;76723.06;;;-147.77;32.21
52839;BME280;39219;53.678;9.856;2023-04-30T11:01:07;76731.16;;;-147.77;34.73
52839;BME280;39219;53.678;9.856;2023-04-30T11:03:36;76737.22;;;-147.77;33.51
52839;BME280;39219;53.678;9.856;2023-04-30T11:06:10;76702.84;;;-147.77;33.02
52839;BME280;39219;53.678;9.856;2023-04-30T11:08:42;76670.47;;;-147.77;34.54
52839;BME280;39219;53.678;9.856;2023-04-30T11:11:10;76692.72;;;-147.77;34.57
52839;BME280;39219;53.678;9.856;2023-04-30T11:13:39;76682.63;;;-147.77;34.15
52839;BME280;39219;53.678;9.856;2023-04-30T11:16:08;76727.13;;;-147.77;33.43
52839;BME280;39219;53.678;9.856;2023-04-30T11:18:41;76694.75;;;-147.77;32.80
52839;BME280;39219;53.678;9.856;2023-04-30T11:21:08;76674.53;;;-147.77;31.75
52839;BME280;39219;53.678;9.856;2023-04-30T11:23:35;76743.31;;;-147.77;30.68
52839;BME280;39219;53.678;9.856;2023-04-30T11:26:02;76757.47;;;-147.77;32.02
52839;BME280;39219;53.678;9.856;2023-04-30T11:28:31;76789.84;;;-147.77;32.03
52839;BME280;39219;53.678;9.856;2023-04-30T11:30:59;76820.19;;;-147.77;31.79
52839;BME280;39219;53.678;9.856;2023-04-30T11:33:28;76797.94;;;-147.77;31.80
52839;BME280;39219;53.678;9.856;2023-04-30T11:35:57;76840.41;;;-147.77;31.66
52839;BME280;39219;53.678;9.856;2023-04-30T11:38:25;76870.75;;;-147.77;31.87
52839;BME280;39219;53.678;9.856;2023-04-30T11:40:52;76907.16;;;-147.77;32.80
52839;BME280;39219;53.678;9.856;2023-04-30T11:43:23;76870.75;;;-147.77;35.33
52839;BME280;39219;53.678;9.856;2023-04-30T11:46:03;76791.84;;;-147.77;34.51
52839;BME280;39219;53.678;9.856;2023-04-30T11:48:32;76719.03;;;-147.77;35.47
52839;BME280;39219;53.678;9.856;2023-04-30T11:51:02;76700.81;;;-147.77;34.79
52839;BME280;39219;53.678;9.856;2023-04-30T11:53:28;76749.38;;;-147.77;32.05
52839;BME280;39219;53.678;9.856;2023-04-30T11:55:55;76710.94;;;-147.77;35.26
52839;BME280;39219;53.678;9.856;2023-04-30T11:58:22;76731.16;;;-147.77;33.12
52839;BME280;39219;53.678;9.856;2023-04-30T12:00:49;76747.34;;;-147.77;32.60
52839;BME280;39219;53.678;9.856;2023-04-30T12:03:17;76826.25;;;-147.77;31.98
52839;BME280;39219;53.678;9.856;2023-04-30T12:05:45;76909.19;;;-147.77;31.74
52839;BME280;39219;53.678;9.856;2023-04-30T12:08:12;76895.03;;;-147.77;32.65
52839;BME280;39219;53.678;9.856;2023-04-30T12:10:39;76876.81;;;-147.77;32.77
52839;BME280;39219;53.678;9.856;2023-04-30T12:13:05;76874.81;;;-147.77;32.87
52839;BME280;39219;53.678;9.856;2023-04-30T12:15:32;76824.22;;;-147.77;33.80
52839;BME280;39219;53.678;9.856;2023-04-30T12:17:58;76771.63;;;-147.77;33.99
52839;BME280;39219;53.678;9.856;2023-04-30T12:20:27;76731.16;;;-147.77;33.93
52839;BME280;39219;53.678;9.856;2023-04-30T12:22:56;76739.25;;;-147.77;33.94
52839;BME280;39219;53.678;9.856;2023-04-30T12:25:23;76747.34;;;-147.77;36.51
52839;BME280;39219;53.678;9.856;2023-04-30T12:27:51;76777.69;;;-147.77;33.46
52839;BME280;39219;53.678;9.856;2023-04-30T12:30:19;76771.63;;;-147.77;32.19
52839;BME280;39219;53.678;9.856;2023-04-30T12:32:49;76799.94;;;-147.77;32.81
52839;BME280;39219;53.678;9.856;2023-04-30T12:35:18;76759.50;;;-147.77;34.88
52839;BME280;39219;53.678;9.856;2023-04-30T12:37:46;76735.22;;;-147.77;32.74
52839;BME280;39219;53.678;9.856;2023-04-30T12:40:17;76751.41;;;-147.77;32.03
52839;BME280;39219;53.678;9.856;2023-04-30T12:42:44;76759.50;;;-147.77;34.91
52839;BME280;39219;53.678;9.856;2023-04-30T12:45:11;76747.34;;;-147.77;34.39